Terminal Aerodrome Forecast
Issued by NWS

Current Version | Previous Version | Text Only | Print | Product List | Glossary On
Versions: 1 2 3 4 5 6 7 8 9 10 11 12 13 14 15 16 17 18 19 20 21 22 23 24 25 26 27 28 29 30 31 32 33 34 35 36 37 38
000
FTUS41 KRNK 022340
TAFLWB
TAF
KLWB 022340Z 0300/0324 30004KT 6SM -SHRA SCT012 OVC035
     FM030500 03003KT 4SM -SHRA BR BKN007 OVC012
     FM031800 09006KT 6SM BR OVC011=

USA.gov is the U.S. government's official web portal to all federal, state and local government web resources and services.